sensor_id;sensor_type;location;lat;lon;timestamp;temperature;humidity
3602;DHT22;1815;50.950;6.920;2023-05-07T00:00:28;17.70;99.90
3602;DHT22;1815;50.950;6.920;2023-05-07T00:02:53;17.70;99.90
3602;DHT22;1815;50.950;6.920;2023-05-07T00:05:19;17.70;99.90
3602;DHT22;1815;50.950;6.920;2023-05-07T00:07:46;17.70;99.90
3602;DHT22;1815;50.950;6.920;2023-05-07T00:10:12;17.80;99.90
3602;DHT22;1815;50.950;6.920;2023-05-07T00:12:38;17.80;99.90
3602;DHT22;1815;50.950;6.920;2023-05-07T00:15:04;17.80;99.90
3602;DHT22;1815;50.950;6.920;2023-05-07T00:17:33;17.80;99.90
3602;DHT22;1815;50.950;6.920;2023-05-07T00:19:59;17.80;99.90
3602;DHT22;1815;50.950;6.920;2023-05-07T00:22:25;17.80;99.90
3602;DHT22;1815;50.950;6.920;2023-05-07T00:24:50;17.80;99.90
3602;DHT22;1815;50.950;6.920;2023-05-07T00:27:16;17.80;99.90
3602;DHT22;1815;50.950;6.920;2023-05-07T00:29:42;17.70;99.90
3602;DHT22;1815;50.950;6.920;2023-05-07T00:32:08;17.70;99.90
3602;DHT22;1815;50.950;6.920;2023-05-07T00:34:34;17.70;99.90
3602;DHT22;1815;50.950;6.920;2023-05-07T00:37:00;17.70;99.90
3602;DHT22;1815;50.950;6.920;2023-05-07T00:39:26;17.70;99.90
3602;DHT22;1815;50.950;6.920;2023-05-07T00:41:52;17.60;99.90
3602;DHT22;1815;50.950;6.920;2023-05-07T00:44:18;17.60;99.90
3602;DHT22;1815;50.950;6.920;2023-05-07T00:46:44;17.60;99.90
3602;DHT22;1815;50.950;6.920;2023-05-07T00:49:10;17.60;99.90
3602;DHT22;1815;50.950;6.920;2023-05-07T00:51:37;17.60;99.90
3602;DHT22;1815;50.950;6.920;2023-05-07T00:54:03;17.60;99.90
3602;DHT22;1815;50.950;6.920;2023-05-07T00:56:29;17.60;99.90
3602;DHT22;1815;50.950;6.920;2023-05-07T00:58:55;17.50;99.90
3602;DHT22;1815;50.950;6.920;2023-05-07T01:01:20;17.50;99.90
3602;DHT22;1815;50.950;6.920;2023-05-07T01:03:47;17.50;99.90
3602;DHT22;1815;50.950;6.920;2023-05-07T01:06:28;17.50;99.90
3602;DHT22;1815;50.950;6.920;2023-05-07T01:08:55;17.50;99.90
3602;DHT22;1815;50.950;6.920;2023-05-07T01:11:23;17.50;99.90
3602;DHT22;1815;50.950;6.920;2023-05-07T01:13:49;17.50;99.90
3602;DHT22;1815;50.950;6.920;2023-05-07T01:16:16;17.50;99.90
3602;DHT22;1815;50.950;6.920;2023-05-07T01:18:42;17.50;99.90
3602;DHT22;1815;50.950;6.920;2023-05-07T01:21:11;17.50;99.90
3602;DHT22;1815;50.950;6.920;2023-05-07T01:23:37;17.50;99.90
3602;DHT22;1815;50.950;6.920;2023-05-07T01:26:03;17.40;99.90
3602;DHT22;1815;50.950;6.920;2023-05-07T01:28:31;17.50;99.90
3602;DHT22;1815;50.950;6.920;2023-05-07T01:31:01;17.50;99.90
3602;DHT22;1815;50.950;6.920;2023-05-07T01:33:31;17.50;99.90
3602;DHT22;1815;50.950;6.920;2023-05-07T01:35:57;17.50;99.90
3602;DHT22;1815;50.950;6.920;2023-05-07T01:38:27;17.50;99.90
3602;DHT22;1815;50.950;6.920;2023-05-07T01:40:54;17.40;99.90
3602;DHT22;1815;50.950;6.920;2023-05-07T01:43:20;17.40;99.90
3602;DHT22;1815;50.950;6.920;2023-05-07T01:45:46;17.40;99.90
3602;DHT22;1815;50.950;6.920;2023-05-07T01:48:13;17.40;99.90
3602;DHT22;1815;50.950;6.920;2023-05-07T01:50:39;17.30;99.90
3602;DHT22;1815;50.950;6.920;2023-05-07T01:53:06;17.30;99.90
3602;DHT22;1815;50.950;6.920;2023-05-07T01:55:31;17.30;99.90
3602;DHT22;1815;50.950;6.920;2023-05-07T01:57:58;17.30;99.90
3602;DHT22;1815;50.950;6.920;2023-05-07T02:00:23;17.30;99.90
3602;DHT22;1815;50.950;6.920;2023-05-07T02:02:49;17.30;99.90
3602;DHT22;1815;50.950;6.920;2023-05-07T02:05:25;17.20;99.90
3602;DHT22;1815;50.950;6.920;2023-05-07T02:08:05;17.20;99.90
3602;DHT22;1815;50.950;6.920;2023-05-07T02:10:31;17.20;99.90
3602;DHT22;1815;50.950;6.920;2023-05-07T02:12:57;17.20;99.90
3602;DHT22;1815;50.950;6.920;2023-05-07T02:15:23;17.20;99.90
3602;DHT22;1815;50.950;6.920;2023-05-07T02:18:09;17.20;99.90
3602;DHT22;1815;50.950;6.920;2023-05-07T02:20:35;17.10;99.90
3602;DHT22;1815;50.950;6.920;2023-05-07T02:23:01;17.10;99.90
3602;DHT22;1815;50.950;6.920;2023-05-07T02:25:29;17.10;99.90
3602;DHT22;1815;50.950;6.920;2023-05-07T02:27:55;17.00;99.90
3602;DHT22;1815;50.950;6.920;2023-05-07T02:30:26;17.00;99.90
3602;DHT22;1815;50.950;6.920;2023-05-07T02:32:54;17.00;99.90
3602;DHT22;1815;50.950;6.920;2023-05-07T02:35:20;17.00;99.90
3602;DHT22;1815;50.950;6.920;2023-05-07T02:37:46;16.90;99.90
3602;DHT22;1815;50.950;6.920;2023-05-07T02:40:12;16.90;99.90
3602;DHT22;1815;50.950;6.920;2023-05-07T02:42:38;16.90;99.90
3602;DHT22;1815;50.950;6.920;2023-05-07T02:45:04;16.90;99.90
3602;DHT22;1815;50.950;6.920;2023-05-07T02:47:30;16.90;99.90
3602;DHT22;1815;50.950;6.920;2023-05-07T02:49:57;16.80;99.90
3602;DHT22;1815;50.950;6.920;2023-05-07T02:52:23;16.90;99.90
3602;DHT22;1815;50.950;6.920;2023-05-07T02:54:49;16.90;99.90
3602;DHT22;1815;50.950;6.920;2023-05-07T02:57:15;16.90;99.90
3602;DHT22;1815;50.950;6.920;2023-05-07T02:59:41;16.90;99.90
3602;DHT22;1815;50.950;6.920;2023-05-07T03:02:07;16.90;99.90
3602;DHT22;1815;50.950;6.920;2023-05-07T03:04:33;16.90;99.90
3602;DHT22;1815;50.950;6.920;2023-05-07T03:06:59;16.80;99.90
3602;DHT22;1815;50.950;6.920;2023-05-07T03:09:24;16.80;99.90
3602;DHT22;1815;50.950;6.920;2023-05-07T03:11:50;16.80;99.90
3602;DHT22;1815;50.950;6.920;2023-05-07T03:14:16;16.90;99.90
3602;DHT22;1815;50.950;6.920;2023-05-07T03:16:42;16.90;99.90
3602;DHT22;1815;50.950;6.920;2023-05-07T03:19:08;16.90;99.90
3602;DHT22;1815;50.950;6.920;2023-05-07T03:21:33;16.90;99.90
3602;DHT22;1815;50.950;6.920;2023-05-07T03:24:00;16.90;99.90
3602;DHT22;1815;50.950;6.920;2023-05-07T03:26:26;16.80;99.90
3602;DHT22;1815;50.950;6.920;2023-05-07T03:28:52;16.80;99.90
3602;DHT22;1815;50.950;6.920;2023-05-07T03:31:18;16.80;99.90
3602;DHT22;1815;50.950;6.920;2023-05-07T03:33:55;16.80;99.90
3602;DHT22;1815;50.950;6.920;2023-05-07T03:36:21;16.70;99.90
3602;DHT22;1815;50.950;6.920;2023-05-07T03:38:48;16.70;99.90
3602;DHT22;1815;50.950;6.920;2023-05-07T03:41:18;16.70;99.90
3602;DHT22;1815;50.950;6.920;2023-05-07T03:43:45;16.60;99.90
3602;DHT22;1815;50.950;6.920;2023-05-07T03:46:12;16.60;99.90
3602;DHT22;1815;50.950;6.920;2023-05-07T03:48:38;16.60;99.90
3602;DHT22;1815;50.950;6.920;2023-05-07T03:51:05;16.60;99.90
3602;DHT22;1815;50.950;6.920;2023-05-07T03:53:32;16.60;99.90
3602;DHT22;1815;50.950;6.920;2023-05-07T03:55:58;16.60;99.90
3602;DHT22;1815;50.950;6.920;2023-05-07T03:58:24;16.60;99.90
3602;DHT22;1815;50.950;6.920;2023-05-07T04:00:52;16.60;99.90
3602;DHT22;1815;50.950;6.920;2023-05-07T04:03:23;16.60;99.90
3602;DHT22;1815;50.950;6.920;2023-05-07T04:05:49;16.60;99.90
3602;DHT22;1815;50.950;6.920;2023-05-07T04:08:15;16.60;99.90
3602;DHT22;1815;50.950;6.920;2023-05-07T04:10:45;16.60;99.90
3602;DHT22;1815;50.950;6.920;2023-05-07T04:13:12;16.70;99.90
3602;DHT22;1815;50.950;6.920;2023-05-07T04:15:38;16.70;99.90
3602;DHT22;1815;50.950;6.920;2023-05-07T04:18:07;16.70;99.90
3602;DHT22;1815;50.950;6.920;2023-05-07T04:20:34;16.70;99.90
3602;DHT22;1815;50.950;6.920;2023-05-07T04:23:03;16.80;99.90
3602;DHT22;1815;50.950;6.920;2023-05-07T04:25:29;16.80;99.90
3602;DHT22;1815;50.950;6.920;2023-05-07T04:28:01;16.90;99.90
3602;DHT22;1815;50.950;6.920;2023-05-07T04:30:29;16.90;99.90
3602;DHT22;1815;50.950;6.920;2023-05-07T04:32:55;17.00;99.90
3602;DHT22;1815;50.950;6.920;2023-05-07T04:35:23;17.00;99.90
3602;DHT22;1815;50.950;6.920;2023-05-07T04:37:49;17.00;99.90
3602;DHT22;1815;50.950;6.920;2023-05-07T04:40:15;17.00;99.90
3602;DHT22;1815;50.950;6.920;2023-05-07T04:42:42;17.00;99.90
3602;DHT22;1815;50.950;6.920;2023-05-07T04:45:09;17.10;99.90
3602;DHT22;1815;50.950;6.920;2023-05-07T04:47:37;17.20;99.90
3602;DHT22;1815;50.950;6.920;2023-05-07T04:50:02;17.20;99.90
3602;DHT22;1815;50.950;6.920;2023-05-07T04:52:28;17.30;99.90
3602;DHT22;1815;50.950;6.920;2023-05-07T04:54:54;17.30;99.90
3602;DHT22;1815;50.950;6.920;2023-05-07T04:57:20;17.30;99.90
3602;DHT22;1815;50.950;6.920;2023-05-07T04:59:45;17.40;99.90
3602;DHT22;1815;50.950;6.920;2023-05-07T05:02:11;17.40;99.90
3602;DHT22;1815;50.950;6.920;2023-05-07T05:04:38;17.50;99.90
3602;DHT22;1815;50.950;6.920;2023-05-07T05:07:04;17.50;99.90
3602;DHT22;1815;50.950;6.920;2023-05-07T05:09:30;17.60;99.90
3602;DHT22;1815;50.950;6.920;2023-05-07T05:11:56;17.70;99.90
3602;DHT22;1815;50.950;6.920;2023-05-07T05:14:22;17.80;99.90
3602;DHT22;1815;50.950;6.920;2023-05-07T05:16:47;17.80;99.90
3602;DHT22;1815;50.950;6.920;2023-05-07T05:19:14;17.90;99.90
3602;DHT22;1815;50.950;6.920;2023-05-07T05:21:40;17.90;99.90
3602;DHT22;1815;50.950;6.920;2023-05-07T05:24:08;18.00;99.90
3602;DHT22;1815;50.950;6.920;2023-05-07T05:26:34;18.00;99.90
3602;DHT22;1815;50.950;6.920;2023-05-07T05:29:01;18.00;99.90
3602;DHT22;1815;50.950;6.920;2023-05-07T05:31:28;18.00;99.90
3602;DHT22;1815;50.950;6.920;2023-05-07T05:33:54;18.10;99.90
3602;DHT22;1815;50.950;6.920;2023-05-07T05:36:20;18.10;99.90
3602;DHT22;1815;50.950;6.920;2023-05-07T05:38:50;18.20;99.90
3602;DHT22;1815;50.950;6.920;2023-05-07T05:41:16;18.20;99.90
3602;DHT22;1815;50.950;6.920;2023-05-07T05:43:42;18.20;99.90
3602;DHT22;1815;50.950;6.920;2023-05-07T05:46:09;18.20;99.90
3602;DHT22;1815;50.950;6.920;2023-05-07T05:48:37;18.20;99.90
3602;DHT22;1815;50.950;6.920;2023-05-07T05:51:04;18.20;99.90
3602;DHT22;1815;50.950;6.920;2023-05-07T05:53:30;18.20;99.90
3602;DHT22;1815;50.950;6.920;2023-05-07T05:55:55;18.20;99.90
3602;DHT22;1815;50.950;6.920;2023-05-07T05:58:21;18.30;99.90
3602;DHT22;1815;50.950;6.920;2023-05-07T06:00:53;18.30;99.90
3602;DHT22;1815;50.950;6.920;2023-05-07T06:03:22;18.40;99.90
3602;DHT22;1815;50.950;6.920;2023-05-07T06:05:48;18.50;99.90
3602;DHT22;1815;50.950;6.920;2023-05-07T06:08:14;18.60;99.90
3602;DHT22;1815;50.950;6.920;2023-05-07T06:10:40;18.60;99.90
3602;DHT22;1815;50.950;6.920;2023-05-07T06:13:07;18.70;99.90
3602;DHT22;1815;50.950;6.920;2023-05-07T06:15:34;18.90;99.90
3602;DHT22;1815;50.950;6.920;2023-05-07T06:18:05;19.00;99.90
3602;DHT22;1815;50.950;6.920;2023-05-07T06:20:31;19.10;99.90
3602;DHT22;1815;50.950;6.920;2023-05-07T06:22:59;19.30;99.90
3602;DHT22;1815;50.950;6.920;2023-05-07T06:25:25;19.40;99.90
3602;DHT22;1815;50.950;6.920;2023-05-07T06:27:50;19.50;99.90
3602;DHT22;1815;50.950;6.920;2023-05-07T06:30:16;19.50;99.90
3602;DHT22;1815;50.950;6.920;2023-05-07T06:32:42;19.60;99.90
3602;DHT22;1815;50.950;6.920;2023-05-07T06:35:09;19.70;99.90
3602;DHT22;1815;50.950;6.920;2023-05-07T06:37:37;19.80;99.90
3602;DHT22;1815;50.950;6.920;2023-05-07T06:40:11;19.90;99.90
3602;DHT22;1815;50.950;6.920;2023-05-07T06:42:39;20.00;99.90
3602;DHT22;1815;50.950;6.920;2023-05-07T06:45:23;20.10;99.90
3602;DHT22;1815;50.950;6.920;2023-05-07T06:47:52;20.20;99.90
3602;DHT22;1815;50.950;6.920;2023-05-07T06:50:18;20.40;99.90
3602;DHT22;1815;50.950;6.920;2023-05-07T06:55:26;20.70;99.90
3602;DHT22;1815;50.950;6.920;2023-05-07T06:57:52;21.00;99.90
3602;DHT22;1815;50.950;6.920;2023-05-07T07:00:20;21.20;99.90
3602;DHT22;1815;50.950;6.920;2023-05-07T07:02:51;21.50;99.90
3602;DHT22;1815;50.950;6.920;2023-05-07T07:05:20;21.70;99.90
3602;DHT22;1815;50.950;6.920;2023-05-07T07:07:46;22.00;99.90
3602;DHT22;1815;50.950;6.920;2023-05-07T07:10:21;22.20;99.90
3602;DHT22;1815;50.950;6.920;2023-05-07T07:12:49;22.50;99.90
3602;DHT22;1815;50.950;6.920;2023-05-07T07:15:15;22.70;99.90
3602;DHT22;1815;50.950;6.920;2023-05-07T07:17:42;23.00;99.90
3602;DHT22;1815;50.950;6.920;2023-05-07T07:20:08;23.30;99.90
3602;DHT22;1815;50.950;6.920;2023-05-07T07:22:34;23.50;99.90
3602;DHT22;1815;50.950;6.920;2023-05-07T07:25:00;23.60;99.90
3602;DHT22;1815;50.950;6.920;2023-05-07T07:27:26;23.80;99.90
3602;DHT22;1815;50.950;6.920;2023-05-07T07:29:52;24.00;99.90
3602;DHT22;1815;50.950;6.920;2023-05-07T07:32:18;24.00;99.90
3602;DHT22;1815;50.950;6.920;2023-05-07T07:34:44;24.10;99.90
3602;DHT22;1815;50.950;6.920;2023-05-07T07:37:11;24.30;99.90
3602;DHT22;1815;50.950;6.920;2023-05-07T07:39:37;24.40;99.90
3602;DHT22;1815;50.950;6.920;2023-05-07T07:42:07;24.60;99.90
3602;DHT22;1815;50.950;6.920;2023-05-07T07:44:33;24.90;99.90
3602;DHT22;1815;50.950;6.920;2023-05-07T07:47:04;25.20;99.90
3602;DHT22;1815;50.950;6.920;2023-05-07T07:49:31;25.40;99.90
3602;DHT22;1815;50.950;6.920;2023-05-07T07:52:01;25.50;99.90
3602;DHT22;1815;50.950;6.920;2023-05-07T07:54:28;25.50;99.90
3602;DHT22;1815;50.950;6.920;2023-05-07T07:56:55;25.50;99.90
3602;DHT22;1815;50.950;6.920;2023-05-07T07:59:21;25.30;99.90
3602;DHT22;1815;50.950;6.920;2023-05-07T08:01:48;25.00;99.90
3602;DHT22;1815;50.950;6.920;2023-05-07T08:04:16;24.60;99.90
3602;DHT22;1815;50.950;6.920;2023-05-07T08:06:42;24.30;99.90
3602;DHT22;1815;50.950;6.920;2023-05-07T08:09:09;24.10;99.90
3602;DHT22;1815;50.950;6.920;2023-05-07T08:11:36;24.00;99.90
3602;DHT22;1815;50.950;6.920;2023-05-07T08:14:03;24.00;99.90
3602;DHT22;1815;50.950;6.920;2023-05-07T08:16:29;24.00;99.90
3602;DHT22;1815;50.950;6.920;2023-05-07T08:18:55;23.90;99.90
3602;DHT22;1815;50.950;6.920;2023-05-07T08:21:21;23.90;99.90
3602;DHT22;1815;50.950;6.920;2023-05-07T08:23:47;24.00;99.90
3602;DHT22;1815;50.950;6.920;2023-05-07T08:26:12;24.00;99.90
3602;DHT22;1815;50.950;6.920;2023-05-07T08:28:38;24.10;99.90
3602;DHT22;1815;50.950;6.920;2023-05-07T08:31:05;24.10;99.90
3602;DHT22;1815;50.950;6.920;2023-05-07T08:33:34;24.10;99.90
3602;DHT22;1815;50.950;6.920;2023-05-07T08:36:00;24.10;99.90
3602;DHT22;1815;50.950;6.920;2023-05-07T08:38:27;24.10;99.90
3602;DHT22;1815;50.950;6.920;2023-05-07T08:40:52;24.10;99.90
3602;DHT22;1815;50.950;6.920;2023-05-07T08:43:20;24.10;99.90
3602;DHT22;1815;50.950;6.920;2023-05-07T08:45:49;24.10;99.90
3602;DHT22;1815;50.950;6.920;2023-05-07T08:48:19;24.20;99.90
3602;DHT22;1815;50.950;6.920;2023-05-07T08:50:54;24.50;99.90
3602;DHT22;1815;50.950;6.920;2023-05-07T08:53:20;24.70;99.90
3602;DHT22;1815;50.950;6.920;2023-05-07T08:55:47;24.90;99.90
3602;DHT22;1815;50.950;6.920;2023-05-07T08:58:13;25.10;99.90
3602;DHT22;1815;50.950;6.920;2023-05-07T09:00:40;25.30;99.90
3602;DHT22;1815;50.950;6.920;2023-05-07T09:03:07;25.50;99.90
3602;DHT22;1815;50.950;6.920;2023-05-07T09:05:34;25.80;99.90
3602;DHT22;1815;50.950;6.920;2023-05-07T09:08:06;26.10;99.90
3602;DHT22;1815;50.950;6.920;2023-05-07T09:10:35;26.30;99.90
3602;DHT22;1815;50.950;6.920;2023-05-07T09:13:03;26.60;99.90
3602;DHT22;1815;50.950;6.920;2023-05-07T09:15:29;26.80;99.90
3602;DHT22;1815;50.950;6.920;2023-05-07T09:17:59;26.60;99.90
3602;DHT22;1815;50.950;6.920;2023-05-07T09:20:30;26.50;99.90
3602;DHT22;1815;50.950;6.920;2023-05-07T09:22:56;26.50;99.90
3602;DHT22;1815;50.950;6.920;2023-05-07T09:25:31;26.80;99.90
3602;DHT22;1815;50.950;6.920;2023-05-07T09:28:01;27.30;99.90
3602;DHT22;1815;50.950;6.920;2023-05-07T09:30:28;27.70;99.90
3602;DHT22;1815;50.950;6.920;2023-05-07T09:33:00;28.10;99.90
3602;DHT22;1815;50.950;6.920;2023-05-07T09:35:27;28.50;99.90
3602;DHT22;1815;50.950;6.920;2023-05-07T09:37:58;29.00;99.90
3602;DHT22;1815;50.950;6.920;2023-05-07T09:40:29;29.70;99.90
3602;DHT22;1815;50.950;6.920;2023-05-07T09:43:09;30.50;99.90
3602;DHT22;1815;50.950;6.920;2023-05-07T09:45:36;31.20;99.90
3602;DHT22;1815;50.950;6.920;2023-05-07T09:48:07;31.90;99.90
3602;DHT22;1815;50.950;6.920;2023-05-07T09:50:36;32.50;99.90
3602;DHT22;1815;50.950;6.920;2023-05-07T09:53:05;33.00;99.90
3602;DHT22;1815;50.950;6.920;2023-05-07T09:55:32;33.60;98.00
3602;DHT22;1815;50.950;6.920;2023-05-07T09:57:58;33.90;94.90
3602;DHT22;1815;50.950;6.920;2023-05-07T10:00:27;34.30;94.50
3602;DHT22;1815;50.950;6.920;2023-05-07T10:03:01;34.60;93.90
3602;DHT22;1815;50.950;6.920;2023-05-07T10:05:37;35.00;93.20
3602;DHT22;1815;50.950;6.920;2023-05-07T10:08:03;35.30;92.70
3602;DHT22;1815;50.950;6.920;2023-05-07T10:10:30;35.40;90.30
3602;DHT22;1815;50.950;6.920;2023-05-07T10:12:57;35.30;82.80
3602;DHT22;1815;50.950;6.920;2023-05-07T10:15:29;35.20;84.30
3602;DHT22;1815;50.950;6.920;2023-05-07T10:17:57;35.00;81.40
3602;DHT22;1815;50.950;6.920;2023-05-07T10:20:24;34.90;81.70
3602;DHT22;1815;50.950;6.920;2023-05-07T10:22:54;34.90;82.00
3602;DHT22;1815;50.950;6.920;2023-05-07T10:25:30;35.20;84.30
3602;DHT22;1815;50.950;6.920;2023-05-07T10:28:02;35.80;84.60
3602;DHT22;1815;50.950;6.920;2023-05-07T10:33:34;36.50;75.30
3602;DHT22;1815;50.950;6.920;2023-05-07T10:36:02;36.60;72.70
3602;DHT22;1815;50.950;6.920;2023-05-07T10:38:31;36.40;70.30
3602;DHT22;1815;50.950;6.920;2023-05-07T10:40:59;36.40;70.30
3602;DHT22;1815;50.950;6.920;2023-05-07T10:43:25;36.20;68.10
3602;DHT22;1815;50.950;6.920;2023-05-07T10:46:15;35.90;67.60
3602;DHT22;1815;50.950;6.920;2023-05-07T10:51:35;35.30;65.20
3602;DHT22;1815;50.950;6.920;2023-05-07T10:56:43;34.50;65.50
3602;DHT22;1815;50.950;6.920;2023-05-07T10:59:34;34.30;65.30
3602;DHT22;1815;50.950;6.920;2023-05-07T11:02:14;33.90;59.80
3602;DHT22;1815;50.950;6.920;2023-05-07T11:05:22;33.40;62.40
3602;DHT22;1815;50.950;6.920;2023-05-07T11:08:09;33.10;57.20
3602;DHT22;1815;50.950;6.920;2023-05-07T11:10:56;32.80;62.60
3602;DHT22;1815;50.950;6.920;2023-05-07T11:13:52;32.40;59.70
3602;DHT22;1815;50.950;6.920;2023-05-07T11:16:45;31.90;60.00
3602;DHT22;1815;50.950;6.920;2023-05-07T11:19:47;31.40;61.30
3602;DHT22;1815;50.950;6.920;2023-05-07T11:25:34;31.20;63.90
3602;DHT22;1815;50.950;6.920;2023-05-07T11:28:10;31.30;65.50
3602;DHT22;1815;50.950;6.920;2023-05-07T11:30:42;31.30;62.50
3602;DHT22;1815;50.950;6.920;2023-05-07T11:33:10;30.90;60.90
3602;DHT22;1815;50.950;6.920;2023-05-07T11:35:37;30.40;61.00
3602;DHT22;1815;50.950;6.920;2023-05-07T11:38:05;30.20;62.80
3602;DHT22;1815;50.950;6.920;2023-05-07T11:40:33;30.10;63.90
3602;DHT22;1815;50.950;6.920;2023-05-07T11:42:59;29.80;63.40
3602;DHT22;1815;50.950;6.920;2023-05-07T11:45:35;29.60;63.90
3602;DHT22;1815;50.950;6.920;2023-05-07T11:48:02;29.40;65.10
3602;DHT22;1815;50.950;6.920;2023-05-07T11:50:28;29.30;64.50
3602;DHT22;1815;50.950;6.920;2023-05-07T11:52:54;29.20;63.10
3602;DHT22;1815;50.950;6.920;2023-05-07T11:55:19;29.00;63.80
3602;DHT22;1815;50.950;6.920;2023-05-07T11:57:45;28.80;63.60
3602;DHT22;1815;50.950;6.920;2023-05-07T12:00:12;28.70;64.00
3602;DHT22;1815;50.950;6.920;2023-05-07T12:02:41;28.50;64.50
3602;DHT22;1815;50.950;6.920;2023-05-07T12:05:07;28.40;64.70
3602;DHT22;1815;50.950;6.920;2023-05-07T12:07:34;28.30;63.80
3602;DHT22;1815;50.950;6.920;2023-05-07T12:10:04;28.10;64.60
3602;DHT22;1815;50.950;6.920;2023-05-07T12:12:30;28.00;64.70
3602;DHT22;1815;50.950;6.920;2023-05-07T12:14:56;27.80;65.00
3602;DHT22;1815;50.950;6.920;2023-05-07T12:17:22;27.60;65.00
3602;DHT22;1815;50.950;6.920;2023-05-07T12:19:47;27.30;65.20
3602;DHT22;1815;50.950;6.920;2023-05-07T12:22:13;27.20;66.20
3602;DHT22;1815;50.950;6.920;2023-05-07T12:24:50;27.20;67.20
3602;DHT22;1815;50.950;6.920;2023-05-07T12:27:22;27.20;67.30
3602;DHT22;1815;50.950;6.920;2023-05-07T12:29:49;27.30;68.00
3602;DHT22;1815;50.950;6.920;2023-05-07T12:32:20;27.30;67.60
3602;DHT22;1815;50.950;6.920;2023-05-07T12:34:49;27.20;67.30
3602;DHT22;1815;50.950;6.920;2023-05-07T12:37:15;27.20;67.20
3602;DHT22;1815;50.950;6.920;2023-05-07T12:39:48;27.10;67.10
3602;DHT22;1815;50.950;6.920;2023-05-07T12:42:20;27.00;67.80
3602;DHT22;1815;50.950;6.920;2023-05-07T12:44:51;27.00;67.40
3602;DHT22;1815;50.950;6.920;2023-05-07T12:47:17;27.00;68.40
3602;DHT22;1815;50.950;6.920;2023-05-07T12:49:43;27.00;68.70
3602;DHT22;1815;50.950;6.920;2023-05-07T12:52:11;26.90;69.00
3602;DHT22;1815;50.950;6.920;2023-05-07T12:54:38;26.90;69.50
3602;DHT22;1815;50.950;6.920;2023-05-07T12:57:08;26.80;70.20
3602;DHT22;1815;50.950;6.920;2023-05-07T12:59:39;26.80;70.40
3602;DHT22;1815;50.950;6.920;2023-05-07T13:02:05;26.70;71.00
3602;DHT22;1815;50.950;6.920;2023-05-07T13:04:31;26.70;71.80
3602;DHT22;1815;50.950;6.920;2023-05-07T13:06:58;26.60;72.60
3602;DHT22;1815;50.950;6.920;2023-05-07T13:09:24;26.50;73.40
3602;DHT22;1815;50.950;6.920;2023-05-07T13:11:50;26.40;74.20
3602;DHT22;1815;50.950;6.920;2023-05-07T13:14:15;26.40;75.50
3602;DHT22;1815;50.950;6.920;2023-05-07T13:16:41;26.30;76.80
3602;DHT22;1815;50.950;6.920;2023-05-07T13:19:07;26.20;77.40
3602;DHT22;1815;50.950;6.920;2023-05-07T13:21:32;26.10;78.10
3602;DHT22;1815;50.950;6.920;2023-05-07T13:23:59;26.10;78.30
3602;DHT22;1815;50.950;6.920;2023-05-07T13:26:25;26.00;78.60
3602;DHT22;1815;50.950;6.920;2023-05-07T13:28:53;25.90;78.70
3602;DHT22;1815;50.950;6.920;2023-05-07T13:31:19;25.90;78.70
3602;DHT22;1815;50.950;6.920;2023-05-07T13:33:46;25.80;78.90
3602;DHT22;1815;50.950;6.920;2023-05-07T13:36:12;25.80;79.30
3602;DHT22;1815;50.950;6.920;2023-05-07T13:38:38;25.90;79.90
3602;DHT22;1815;50.950;6.920;2023-05-07T13:41:04;25.90;80.20
3602;DHT22;1815;50.950;6.920;2023-05-07T13:43:30;25.90;80.40
3602;DHT22;1815;50.950;6.920;2023-05-07T13:45:57;26.00;81.10
3602;DHT22;1815;50.950;6.920;2023-05-07T13:48:22;26.10;81.80
3602;DHT22;1815;50.950;6.920;2023-05-07T13:50:48;26.10;81.80
3602;DHT22;1815;50.950;6.920;2023-05-07T13:53:14;26.10;81.80
3602;DHT22;1815;50.950;6.920;2023-05-07T13:55:43;26.10;81.90
3602;DHT22;1815;50.950;6.920;2023-05-07T13:58:09;26.10;82.10
3602;DHT22;1815;50.950;6.920;2023-05-07T14:00:35;26.10;82.20
3602;DHT22;1815;50.950;6.920;2023-05-07T14:03:04;26.10;82.50
3602;DHT22;1815;50.950;6.920;2023-05-07T14:05:30;26.10;82.80
3602;DHT22;1815;50.950;6.920;2023-05-07T14:07:57;26.10;82.90
3602;DHT22;1815;50.950;6.920;2023-05-07T14:10:23;26.10;83.10
3602;DHT22;1815;50.950;6.920;2023-05-07T14:12:49;26.10;83.00
3602;DHT22;1815;50.950;6.920;2023-05-07T14:15:15;26.10;83.40
3602;DHT22;1815;50.950;6.920;2023-05-07T14:17:42;26.20;84.00
3602;DHT22;1815;50.950;6.920;2023-05-07T14:20:08;26.10;84.70
3602;DHT22;1815;50.950;6.920;2023-05-07T14:22:36;26.20;85.40
3602;DHT22;1815;50.950;6.920;2023-05-07T14:25:01;26.10;85.70
3602;DHT22;1815;50.950;6.920;2023-05-07T14:27:27;26.10;86.20
3602;DHT22;1815;50.950;6.920;2023-05-07T14:29:54;26.10;86.70
3602;DHT22;1815;50.950;6.920;2023-05-07T14:32:21;26.00;87.50
3602;DHT22;1815;50.950;6.920;2023-05-07T14:34:47;26.00;88.20
3602;DHT22;1815;50.950;6.920;2023-05-07T14:37:13;26.00;88.80
3602;DHT22;1815;50.950;6.920;2023-05-07T14:39:39;26.00;89.20
3602;DHT22;1815;50.950;6.920;2023-05-07T14:42:05;25.90;89.70
3602;DHT22;1815;50.950;6.920;2023-05-07T14:44:36;25.90;90.30
3602;DHT22;1815;50.950;6.920;2023-05-07T14:47:02;25.90;90.50
3602;DHT22;1815;50.950;6.920;2023-05-07T14:49:27;25.80;90.80
3602;DHT22;1815;50.950;6.920;2023-05-07T14:51:53;25.80;91.00
3602;DHT22;1815;50.950;6.920;2023-05-07T14:54:19;25.80;91.30
3602;DHT22;1815;50.950;6.920;2023-05-07T14:56:45;25.70;91.40
3602;DHT22;1815;50.950;6.920;2023-05-07T14:59:11;25.70;91.60
3602;DHT22;1815;50.950;6.920;2023-05-07T15:01:37;25.60;91.60
3602;DHT22;1815;50.950;6.920;2023-05-07T15:04:04;25.50;91.70
3602;DHT22;1815;50.950;6.920;2023-05-07T15:06:31;25.50;91.90
3602;DHT22;1815;50.950;6.920;2023-05-07T15:08:57;25.40;92.20
3602;DHT22;1815;50.950;6.920;2023-05-07T15:11:22;25.30;92.60
3602;DHT22;1815;50.950;6.920;2023-05-07T15:13:49;25.20;92.90
3602;DHT22;1815;50.950;6.920;2023-05-07T15:16:15;25.10;93.20
3602;DHT22;1815;50.950;6.920;2023-05-07T15:18:41;25.10;93.60
3602;DHT22;1815;50.950;6.920;2023-05-07T15:21:06;25.00;93.60
3602;DHT22;1815;50.950;6.920;2023-05-07T15:23:33;25.00;93.80
3602;DHT22;1815;50.950;6.920;2023-05-07T15:25:58;25.00;93.90
3602;DHT22;1815;50.950;6.920;2023-05-07T15:28:24;24.90;93.80
3602;DHT22;1815;50.950;6.920;2023-05-07T15:30:52;24.90;93.80
3602;DHT22;1815;50.950;6.920;2023-05-07T15:33:18;24.90;93.90
3602;DHT22;1815;50.950;6.920;2023-05-07T15:35:44;24.90;93.90
3602;DHT22;1815;50.950;6.920;2023-05-07T15:38:10;25.00;94.00
3602;DHT22;1815;50.950;6.920;2023-05-07T15:40:36;25.00;94.20
3602;DHT22;1815;50.950;6.920;2023-05-07T15:43:07;25.00;94.40
3602;DHT22;1815;50.950;6.920;2023-05-07T15:45:33;25.00;94.60
3602;DHT22;1815;50.950;6.920;2023-05-07T15:48:03;25.00;94.80
3602;DHT22;1815;50.950;6.920;2023-05-07T15:50:29;25.00;95.00
3602;DHT22;1815;50.950;6.920;2023-05-07T15:52:54;25.00;95.30
3602;DHT22;1815;50.950;6.920;2023-05-07T15:55:21;25.00;95.60
3602;DHT22;1815;50.950;6.920;2023-05-07T15:57:46;25.00;95.90
3602;DHT22;1815;50.950;6.920;2023-05-07T16:00:13;25.00;96.20
3602;DHT22;1815;50.950;6.920;2023-05-07T16:02:41;25.00;96.30
3602;DHT22;1815;50.950;6.920;2023-05-07T16:05:07;25.00;96.50
3602;DHT22;1815;50.950;6.920;2023-05-07T16:07:35;25.00;96.80
3602;DHT22;1815;50.950;6.920;2023-05-07T16:10:02;25.10;97.10
3602;DHT22;1815;50.950;6.920;2023-05-07T16:12:27;25.10;97.00
3602;DHT22;1815;50.950;6.920;2023-05-07T16:14:53;25.00;96.90
3602;DHT22;1815;50.950;6.920;2023-05-07T16:17:19;25.00;97.10
3602;DHT22;1815;50.950;6.920;2023-05-07T16:19:44;25.00;97.10